Terminal Aerodrome Forecast
Issued by NWS Brownsville, TX

Home | Current Version | Previous Version | Text Only | Print | Product List | Glossary On
Versions: 1 2 3 4 5 6 7 8 9 10 11 12 13 14 15 16 17 18
000
FTUS44 KBRO 291241 AAB
TAFBRO
TAF AMD
KBRO 291241Z 2913/3012 15005KT 5SM BR FEW016 FEW022
     FM291500 16015G22KT P6SM SCT025
     FM300100 14008KT P6SM FEW200
     FM300800 14006KT 6SM HZ FEW015=

USA.gov is the U.S. government's official web portal to all federal, state and local government web resources and services.